createdAt,value
2023-04-16T00:02:40.098Z,7.93
2023-04-16T00:05:47.203Z,7.93
2023-04-16T00:08:53.050Z,7.96
2023-04-16T00:11:59.911Z,7.99
2023-04-16T00:15:05.148Z,7.97
2023-04-16T00:18:12.483Z,8.00
2023-04-16T00:21:17.997Z,8.02
2023-04-16T00:24:23.912Z,8.03
2023-04-16T00:27:30.047Z,8.02
2023-04-16T00:30:36.972Z,8.02
2023-04-16T00:33:44.967Z,7.99
2023-04-16T00:36:51.666Z,7.95
2023-04-16T00:39:57.854Z,7.85
2023-04-16T00:43:04.393Z,7.79
2023-04-16T00:46:11.510Z,7.77
2023-04-16T00:49:19.065Z,7.76
2023-04-16T00:52:25.099Z,7.71
2023-04-16T00:55:31.856Z,7.66
2023-04-16T00:58:38.069Z,7.66
2023-04-16T01:01:44.451Z,7.68
2023-04-16T01:04:51.897Z,7.66
2023-04-16T01:07:58.694Z,7.67
2023-04-16T01:11:04.570Z,7.64
2023-04-16T01:14:11.080Z,7.59
2023-04-16T01:17:18.755Z,7.54
2023-04-16T01:20:24.676Z,7.52
2023-04-16T01:23:29.900Z,7.48
2023-04-16T01:26:35.432Z,7.48
2023-04-16T01:29:40.709Z,7.47
2023-04-16T01:32:48.727Z,7.47
2023-04-16T01:35:55.393Z,7.45
2023-04-16T01:39:02.215Z,7.48
2023-04-16T01:42:08.616Z,7.47
2023-04-16T01:45:14.944Z,7.41
2023-04-16T01:48:20.346Z,7.39
2023-04-16T01:51:25.699Z,7.38
2023-04-16T01:54:32.344Z,7.40
2023-04-16T01:57:37.317Z,7.37
2023-04-16T02:00:43.055Z,7.31
2023-04-16T02:03:49.016Z,7.27
2023-04-16T02:06:57.456Z,7.24
2023-04-16T02:10:04.215Z,7.27
2023-04-16T02:13:10.520Z,7.28
2023-04-16T02:16:18.831Z,7.25
2023-04-16T02:19:26.334Z,7.23
2023-04-16T02:22:32.108Z,7.28
2023-04-16T02:25:37.858Z,7.25
2023-04-16T02:28:45.138Z,7.23
2023-04-16T02:31:51.405Z,7.19
2023-04-16T02:34:58.546Z,7.20
2023-04-16T02:38:03.658Z,7.18
2023-04-16T02:41:08.542Z,7.15
2023-04-16T02:44:13.661Z,7.14
2023-04-16T02:47:19.659Z,7.13
2023-04-16T02:50:26.458Z,7.08
2023-04-16T02:53:32.991Z,7.05
2023-04-16T02:56:38.203Z,7.03
2023-04-16T02:59:43.916Z,7.03
2023-04-16T03:02:50.676Z,7.01
2023-04-16T03:05:56.877Z,7.05
2023-04-16T03:09:02.560Z,7.10
2023-04-16T03:12:08.993Z,7.13
2023-04-16T03:15:15.174Z,7.13
2023-04-16T03:18:21.968Z,7.12
2023-04-16T03:21:29.217Z,7.15
2023-04-16T03:24:35.039Z,7.12
2023-04-16T03:27:42.218Z,7.04
2023-04-16T03:30:49.009Z,7.03
2023-04-16T03:33:55.224Z,7.04
2023-04-16T03:37:03.405Z,7.08
2023-04-16T03:40:08.956Z,7.12
2023-04-16T03:43:15.462Z,7.16
2023-04-16T03:46:22.979Z,7.19
2023-04-16T03:49:29.441Z,7.23
2023-04-16T03:52:35.179Z,7.25
2023-04-16T03:55:41.257Z,7.26
2023-04-16T03:58:49.558Z,7.29
2023-04-16T04:01:55.931Z,7.33
2023-04-16T04:05:04.261Z,7.34
2023-04-16T04:08:11.994Z,7.37
2023-04-16T04:11:18.072Z,7.40
2023-04-16T04:14:25.497Z,7.45
2023-04-16T04:17:32.891Z,7.54
2023-04-16T04:20:39.722Z,7.56
2023-04-16T04:23:49.464Z,7.53
2023-04-16T04:26:54.378Z,7.59
2023-04-16T04:29:59.805Z,7.61
2023-04-16T04:33:05.666Z,7.66
2023-04-16T04:36:11.081Z,7.68
2023-04-16T04:39:17.138Z,7.65
2023-04-16T04:42:23.003Z,7.68
2023-04-16T04:45:31.802Z,7.73
2023-04-16T04:48:37.782Z,7.77
2023-04-16T04:51:44.571Z,7.77
2023-04-16T04:54:53.354Z,7.75
2023-04-16T04:58:00.170Z,7.71
2023-04-16T05:01:05.358Z,7.63
2023-04-16T05:04:11.870Z,7.60
2023-04-16T05:07:18.534Z,7.58
2023-04-16T05:10:26.159Z,7.58
2023-04-16T05:13:25.097Z,7.61
2023-04-16T05:16:11.165Z,7.59
2023-04-16T05:19:05.304Z,7.59
2023-04-16T05:21:52.717Z,7.67
2023-04-16T05:24:47.472Z,7.76
2023-04-16T05:27:42.791Z,7.80
2023-04-16T05:30:49.009Z,7.82
2023-04-16T05:33:56.012Z,7.78
2023-04-16T05:37:03.054Z,7.73
2023-04-16T05:40:09.382Z,7.80
2023-04-16T05:43:16.555Z,7.88
2023-04-16T05:46:22.853Z,7.90
2023-04-16T05:49:31.053Z,7.92
2023-04-16T05:52:36.303Z,7.99
2023-04-16T05:55:44.175Z,8.03
2023-04-16T05:58:51.196Z,8.12
2023-04-16T06:01:59.816Z,8.26
2023-04-16T06:05:07.037Z,8.36
2023-04-16T06:08:14.377Z,8.47
2023-04-16T06:11:21.751Z,8.56
2023-04-16T06:14:28.799Z,8.67
2023-04-16T06:17:33.908Z,8.74
2023-04-16T06:20:40.694Z,8.79
2023-04-16T06:23:48.622Z,8.83
2023-04-16T06:26:54.532Z,8.91
2023-04-16T06:30:01.895Z,8.93
2023-04-16T06:33:09.542Z,8.95
2023-04-16T06:36:15.853Z,8.92
2023-04-16T06:39:22.713Z,8.96
2023-04-16T06:42:29.266Z,9.09
2023-04-16T06:45:34.876Z,9.21
2023-04-16T06:48:40.378Z,9.35
2023-04-16T06:51:47.455Z,9.34
2023-04-16T06:54:54.404Z,9.33
2023-04-16T06:58:00.520Z,9.30
2023-04-16T07:01:06.859Z,9.34
2023-04-16T07:04:13.803Z,9.33
2023-04-16T07:07:20.176Z,9.33
2023-04-16T07:10:27.908Z,9.28
2023-04-16T07:13:34.953Z,9.28
2023-04-16T07:16:42.136Z,9.31
2023-04-16T07:19:49.412Z,9.39
2023-04-16T07:22:56.400Z,9.39
2023-04-16T07:26:01.472Z,9.46
2023-04-16T07:29:11.008Z,9.63
2023-04-16T07:32:17.285Z,9.83
2023-04-16T07:35:25.523Z,10.04
2023-04-16T07:38:31.402Z,10.23
2023-04-16T07:41:37.175Z,10.33
2023-04-16T07:44:43.002Z,10.34
2023-04-16T07:47:48.217Z,10.29
2023-04-16T07:50:54.026Z,10.43
2023-04-16T07:53:59.632Z,10.74
2023-04-16T07:57:06.280Z,10.94
2023-04-16T08:00:15.775Z,11.00
2023-04-16T08:03:23.482Z,11.16
2023-04-16T08:06:30.457Z,11.26
2023-04-16T08:09:39.547Z,11.37
2023-04-16T08:12:44.372Z,11.35
2023-04-16T08:15:49.768Z,11.46
2023-04-16T08:18:55.706Z,11.65
2023-04-16T08:22:00.378Z,11.83
2023-04-16T08:25:06.625Z,11.94
2023-04-16T08:28:14.161Z,12.04
2023-04-16T08:31:20.756Z,12.13
2023-04-16T08:34:26.750Z,12.14
2023-04-16T08:37:33.380Z,12.02
2023-04-16T08:40:43.908Z,11.98
2023-04-16T08:43:50.446Z,12.10
2023-04-16T08:46:55.666Z,12.32
2023-04-16T08:50:01.637Z,12.40
2023-04-16T08:53:13.844Z,12.47
2023-04-16T08:56:21.988Z,12.46
2023-04-16T08:59:28.927Z,12.45
2023-04-16T09:02:35.499Z,12.34
2023-04-16T09:05:42.433Z,12.34
2023-04-16T09:08:50.603Z,12.32
2023-04-16T09:11:57.386Z,12.45
2023-04-16T09:15:09.011Z,12.57
2023-04-16T09:18:16.403Z,12.74
2023-04-16T09:21:25.918Z,12.84
2023-04-16T09:24:32.289Z,12.91
2023-04-16T09:27:37.750Z,12.87
2023-04-16T09:30:43.597Z,12.88
2023-04-16T09:33:51.530Z,12.98
2023-04-16T09:36:58.756Z,13.02
2023-04-16T09:40:18.301Z,13.06
2023-04-16T09:43:29.654Z,13.13
2023-04-16T09:46:46.164Z,13.21
2023-04-16T09:49:57.259Z,13.24
2023-04-16T09:53:06.316Z,13.24
2023-04-16T09:56:15.858Z,13.30
2023-04-16T09:59:22.965Z,13.31
2023-04-16T10:02:30.260Z,13.45
2023-04-16T10:05:36.855Z,13.52
2023-04-16T10:08:42.934Z,13.53
2023-04-16T10:11:48.002Z,13.50
2023-04-16T10:14:53.772Z,13.52
2023-04-16T10:18:00.635Z,13.57
2023-04-16T10:21:07.544Z,13.63
2023-04-16T10:24:12.884Z,13.64
2023-04-16T10:27:18.878Z,13.59
2023-04-16T10:30:26.106Z,13.52
2023-04-16T10:33:31.598Z,13.47
2023-04-16T10:36:41.117Z,13.47
2023-04-16T10:39:47.209Z,13.44
2023-04-16T10:42:55.249Z,13.31
2023-04-16T10:46:03.204Z,13.24
2023-04-16T10:49:11.811Z,13.12
2023-04-16T10:52:31.080Z,13.00
2023-04-16T10:55:39.746Z,12.94
2023-04-16T10:58:46.284Z,12.97
2023-04-16T11:02:00.920Z,13.05
2023-04-16T11:05:07.795Z,13.17
2023-04-16T11:08:13.537Z,13.22
2023-04-16T11:11:22.041Z,13.29
2023-04-16T11:14:28.869Z,13.31
2023-04-16T11:17:34.750Z,13.31
2023-04-16T11:20:42.401Z,13.26
2023-04-16T11:24:03.639Z,13.23
2023-04-16T11:27:11.604Z,13.18
2023-04-16T11:30:20.262Z,13.14
2023-04-16T11:33:26.974Z,13.06
2023-04-16T11:36:31.907Z,13.00
2023-04-16T11:39:38.716Z,12.96
2023-04-16T11:42:49.772Z,12.91
2023-04-16T11:46:24.560Z,12.89
2023-04-16T11:49:20.865Z,12.84
2023-04-16T11:52:26.016Z,12.80
2023-04-16T11:55:31.821Z,12.80
2023-04-16T11:58:43.248Z,12.82
2023-04-16T12:01:46.923Z,12.86
2023-04-16T12:04:53.696Z,12.90
2023-04-16T12:07:59.857Z,12.96
2023-04-16T12:11:10.741Z,13.06
2023-04-16T12:14:28.618Z,13.18
2023-04-16T12:17:38.318Z,13.26
2023-04-16T12:20:51.271Z,13.39
2023-04-16T12:24:00.094Z,13.45
2023-04-16T12:27:09.598Z,13.55
2023-04-16T12:30:21.115Z,13.66
2023-04-16T12:33:31.647Z,13.73
2023-04-16T12:36:38.694Z,13.83
2023-04-16T12:39:48.038Z,13.91
2023-04-16T12:42:59.095Z,13.92
2023-04-16T12:46:04.760Z,13.98
2023-04-16T12:49:11.383Z,14.08
2023-04-16T12:52:17.955Z,14.15
2023-04-16T12:55:24.431Z,14.19
2023-04-16T12:58:31.130Z,14.26
2023-04-16T13:01:37.554Z,14.33
2023-04-16T13:04:43.234Z,14.39
2023-04-16T13:07:51.488Z,14.44
2023-04-16T13:10:57.397Z,14.46
2023-04-16T13:14:03.272Z,14.50
2023-04-16T13:17:10.587Z,14.52
2023-04-16T13:20:10.197Z,14.55
2023-04-16T13:23:17.217Z,14.61
2023-04-16T13:26:24.183Z,14.70
2023-04-16T13:29:31.221Z,14.77
2023-04-16T13:32:37.509Z,14.83
2023-04-16T13:35:43.892Z,14.88
2023-04-16T13:38:49.772Z,14.91
2023-04-16T13:41:58.198Z,14.95
2023-04-16T13:45:06.353Z,14.96
2023-04-16T13:48:12.463Z,14.90
2023-04-16T13:51:20.446Z,14.85
2023-04-16T13:54:26.911Z,14.86
2023-04-16T13:57:34.443Z,14.89
2023-04-16T14:00:34.703Z,14.92
2023-04-16T14:03:28.694Z,14.96
2023-04-16T14:06:35.845Z,14.98
2023-04-16T14:09:42.992Z,15.02
2023-04-16T14:12:49.628Z,15.09
2023-04-16T14:15:55.510Z,15.14
2023-04-16T14:19:01.966Z,15.18
2023-04-16T14:22:09.552Z,15.19
2023-04-16T14:25:16.554Z,15.12
2023-04-16T14:28:22.919Z,15.14
2023-04-16T14:31:31.134Z,15.19
2023-04-16T14:34:37.022Z,15.14
2023-04-16T14:37:44.074Z,15.18
2023-04-16T14:40:50.316Z,15.20
2023-04-16T14:43:56.779Z,15.25
2023-04-16T14:47:03.470Z,15.30
2023-04-16T14:50:10.616Z,15.33
2023-04-16T14:53:15.947Z,15.35
2023-04-16T14:56:21.025Z,15.38
2023-04-16T14:59:27.242Z,15.44
2023-04-16T15:02:32.590Z,15.72
2023-04-16T15:05:39.565Z,16.23
2023-04-16T15:08:48.511Z,16.57
2023-04-16T15:11:53.938Z,16.91
2023-04-16T15:15:00.790Z,17.34
2023-04-16T15:18:08.076Z,17.64
2023-04-16T15:21:16.408Z,17.90
2023-04-16T15:24:23.972Z,18.31
2023-04-16T15:27:28.940Z,18.66
2023-04-16T15:30:35.799Z,18.92
2023-04-16T15:33:40.871Z,19.34
2023-04-16T15:36:49.309Z,19.62
2023-04-16T15:39:55.529Z,19.49
2023-04-16T15:43:01.067Z,19.52
2023-04-16T15:46:08.562Z,19.55
2023-04-16T15:49:15.805Z,19.34
2023-04-16T15:52:22.367Z,19.27
2023-04-16T15:55:28.372Z,19.16
2023-04-16T15:58:36.386Z,18.89
2023-04-16T16:01:42.420Z,18.35
2023-04-16T16:04:50.515Z,17.92
2023-04-16T16:07:58.771Z,17.55
2023-04-16T16:11:06.419Z,17.16
2023-04-16T16:14:12.420Z,16.76
2023-04-16T16:17:20.034Z,16.35
2023-04-16T16:20:25.768Z,16.02
2023-04-16T16:23:34.609Z,15.69
2023-04-16T16:26:40.730Z,15.42
2023-04-16T16:29:47.606Z,15.16
2023-04-16T16:32:54.940Z,14.90
2023-04-16T16:36:00.581Z,14.70
2023-04-16T16:39:07.435Z,14.53
2023-04-16T16:42:15.437Z,14.38
2023-04-16T16:45:21.664Z,14.20
2023-04-16T16:48:28.062Z,14.05
2023-04-16T16:51:34.842Z,13.88
2023-04-16T16:54:42.311Z,13.74
2023-04-16T16:57:47.967Z,13.59
2023-04-16T17:00:54.548Z,13.43
2023-04-16T17:04:01.821Z,13.30
2023-04-16T17:07:09.019Z,13.14
2023-04-16T17:10:16.111Z,13.00
2023-04-16T17:13:25.633Z,12.85
2023-04-16T17:16:31.468Z,12.72
2023-04-16T17:19:39.957Z,12.58
2023-04-16T17:22:45.030Z,12.45
2023-04-16T17:25:50.721Z,12.31
2023-04-16T17:28:58.602Z,12.17
2023-04-16T17:32:04.346Z,12.04
2023-04-16T17:35:14.340Z,11.92
2023-04-16T17:38:19.480Z,11.80
2023-04-16T17:41:26.939Z,11.67
2023-04-16T17:44:34.843Z,11.53
2023-04-16T17:47:40.177Z,11.41
2023-04-16T17:50:47.419Z,11.26
2023-04-16T17:53:53.636Z,11.14
2023-04-16T17:57:02.299Z,11.02
2023-04-16T18:00:09.146Z,10.89
2023-04-16T18:03:19.402Z,10.81
2023-04-16T18:06:26.237Z,10.70
2023-04-16T18:09:33.859Z,10.63
2023-04-16T18:12:40.174Z,10.52
2023-04-16T18:15:49.574Z,10.42
2023-04-16T18:18:58.927Z,10.32
2023-04-16T18:22:07.119Z,10.23
2023-04-16T18:25:12.614Z,10.15
2023-04-16T18:28:20.133Z,10.06
2023-04-16T18:31:25.846Z,9.99
2023-04-16T18:34:32.891Z,9.92
2023-04-16T18:37:37.926Z,9.84
2023-04-16T18:40:48.529Z,9.76
2023-04-16T18:43:54.100Z,9.69
2023-04-16T18:47:00.678Z,9.63
2023-04-16T18:50:05.865Z,9.60
2023-04-16T18:53:12.469Z,9.54
2023-04-16T18:56:18.677Z,9.51
2023-04-16T18:59:24.344Z,9.48
2023-04-16T19:02:30.216Z,9.45
2023-04-16T19:05:36.537Z,9.42
2023-04-16T19:08:42.597Z,9.38
2023-04-16T19:11:49.256Z,9.34
2023-04-16T19:14:57.642Z,9.29
2023-04-16T19:18:04.491Z,9.24
2023-04-16T19:21:17.772Z,9.20
2023-04-16T19:24:23.939Z,9.13
2023-04-16T19:27:29.246Z,9.07
2023-04-16T19:30:35.411Z,9.03
2023-04-16T19:33:41.805Z,8.97
2023-04-16T19:36:46.865Z,8.92
2023-04-16T19:39:52.153Z,8.86
2023-04-16T19:42:58.186Z,8.81
2023-04-16T19:46:05.518Z,8.75
2023-04-16T19:49:13.620Z,8.72
2023-04-16T19:52:20.217Z,8.68
2023-04-16T19:55:25.484Z,8.63
2023-04-16T19:58:32.931Z,8.59
2023-04-16T20:01:40.264Z,8.55
2023-04-16T20:04:46.606Z,8.55
2023-04-16T20:07:53.385Z,8.52
2023-04-16T20:10:59.652Z,8.52
2023-04-16T20:14:07.701Z,8.49
2023-04-16T20:17:16.201Z,8.48
2023-04-16T20:20:23.194Z,8.45
2023-04-16T20:23:28.556Z,8.43
2023-04-16T20:26:34.981Z,8.42
2023-04-16T20:29:41.373Z,8.41
2023-04-16T20:32:47.415Z,8.36
2023-04-16T20:35:53.570Z,8.34
2023-04-16T20:39:01.285Z,8.31
2023-04-16T20:42:07.332Z,8.29
2023-04-16T20:45:12.959Z,8.29
2023-04-16T20:48:20.745Z,8.28
2023-04-16T20:51:28.250Z,8.26
2023-04-16T20:54:34.381Z,8.26
2023-04-16T20:57:39.627Z,8.28
2023-04-16T21:00:45.241Z,8.28
2023-04-16T21:03:50.746Z,8.28
2023-04-16T21:07:00.132Z,8.30
2023-04-16T21:10:08.646Z,8.30
2023-04-16T21:13:20.543Z,8.31
2023-04-16T21:16:27.094Z,8.32
2023-04-16T21:19:34.429Z,8.33
2023-04-16T21:22:43.038Z,8.35
2023-04-16T21:25:49.252Z,8.34
2023-04-16T21:28:55.279Z,8.34
2023-04-16T21:32:01.647Z,8.35
2023-04-16T21:35:08.616Z,8.35
2023-04-16T21:38:14.749Z,8.34
2023-04-16T21:41:20.957Z,8.35
2023-04-16T21:44:28.540Z,8.35
2023-04-16T21:47:36.138Z,8.37
2023-04-16T21:50:43.342Z,8.41
2023-04-16T21:53:48.963Z,8.46
2023-04-16T21:56:55.350Z,8.50
2023-04-16T22:00:01.590Z,8.52
2023-04-16T22:03:07.340Z,8.55
2023-04-16T22:06:16.326Z,8.55
2023-04-16T22:09:22.480Z,8.56
2023-04-16T22:12:29.016Z,8.54
2023-04-16T22:15:34.111Z,8.48
2023-04-16T22:18:41.247Z,8.48
2023-04-16T22:21:48.947Z,8.47
2023-04-16T22:24:48.767Z,8.46
2023-04-16T22:27:56.541Z,8.42
2023-04-16T22:31:02.509Z,8.40
2023-04-16T22:34:08.407Z,8.35
2023-04-16T22:37:15.885Z,8.31
2023-04-16T22:40:24.726Z,8.28
2023-04-16T22:43:31.624Z,8.23
2023-04-16T22:46:37.684Z,8.13
2023-04-16T22:49:46.501Z,8.07
2023-04-16T22:52:53.091Z,7.98
2023-04-16T22:56:01.296Z,7.92
2023-04-16T22:59:06.520Z,7.86
2023-04-16T23:02:12.488Z,7.82
2023-04-16T23:05:18.150Z,7.76
2023-04-16T23:08:23.722Z,7.72
2023-04-16T23:11:28.853Z,7.67
2023-04-16T23:14:37.315Z,7.61
2023-04-16T23:17:36.325Z,7.56
2023-04-16T23:20:44.309Z,7.52
2023-04-16T23:23:51.638Z,7.47
2023-04-16T23:26:59.786Z,7.42
2023-04-16T23:30:05.445Z,7.35
2023-04-16T23:33:12.124Z,7.28
2023-04-16T23:36:17.405Z,7.24
2023-04-16T23:39:23.680Z,7.21
2023-04-16T23:42:30.364Z,7.16
2023-04-16T23:45:36.100Z,7.13
2023-04-16T23:48:43.223Z,7.07
2023-04-16T23:51:48.528Z,7.01
2023-04-16T23:54:47.985Z,6.98
2023-04-16T23:57:54.578Z,6.94
